Time;durP1;ratioP1;P1;durP2;ratioP2;P2;SDS_P1;SDS_P2;PMS_P1;PMS_P2;Temp;Humidity;BMP_temperature;BMP_pressure;BME280_temperature;BME280_humidity;BME280_pressure;Samples;Min_cycle;Max_cycle;Signal;HPM_P1;HPM_P2
2023/05/23 00:00:39;;;;;;;15.93;8.27;;;;;;;;;;5068009;28;20055;-75
2023/05/23 00:03:14;;;;;;;44.60;23.60;;;;;;;;;;5063947;28;20049;-75
2023/05/23 00:05:46;;;;;;;25.30;12.27;;;;;;;;;;5067101;28;20680;-75
2023/05/23 00:08:19;;;;;;;11.57;7.03;;;;;;;;;;5067256;28;20051;-74
2023/05/23 00:10:49;;;;;;;7.95;5.30;;;;;;;;;;5054645;28;20431;-75
2023/05/23 00:13:22;;;;;;;16.13;7.15;;;;;;;;;;5067383;28;20041;-75
2023/05/23 00:15:53;;;;;;;11.10;6.88;;;;;;;;;;5064606;28;20534;-75
2023/05/23 00:18:25;;;;;;;17.70;7.13;;;;;;;;;;5067068;28;20044;-75
2023/05/23 00:20:56;;;;;;;11.85;6.10;;;;;;;;;;5067318;28;20052;-76
2023/05/23 00:23:28;;;;;;;11.55;6.40;;;;;;;;;;5067258;28;20044;-75
2023/05/23 00:26:02;;;;;;;11.73;6.35;;;;;;;;;;5066976;28;20100;-76
2023/05/23 00:28:34;;;;;;;8.35;5.78;;;;;;;;;;5065339;28;20052;-75
2023/05/23 00:31:06;;;;;;;7.45;6.07;;;;;;;;;;5066553;28;20059;-75
2023/05/23 00:33:39;;;;;;;12.27;6.35;;;;;;;;;;5057497;28;20041;-76
2023/05/23 00:36:12;;;;;;;13.35;6.28;;;;;;;;;;5064065;28;20048;-75
2023/05/23 00:38:46;;;;;;;13.07;6.22;;;;;;;;;;5056929;28;20049;-76
2023/05/23 00:41:18;;;;;;;10.40;6.78;;;;;;;;;;5067591;28;20044;-76
2023/05/23 00:43:53;;;;;;;10.68;5.55;;;;;;;;;;5067927;28;20666;-75
2023/05/23 00:46:31;;;;;;;13.05;6.43;;;;;;;;;;5066275;28;20534;-75
2023/05/23 00:49:03;;;;;;;11.65;6.38;;;;;;;;;;5067173;28;20048;-75
2023/05/23 00:51:35;;;;;;;13.50;6.75;;;;;;;;;;5066846;28;20045;-75
2023/05/23 00:54:11;;;;;;;10.15;6.47;;;;;;;;;;5067379;28;20048;-75
2023/05/23 00:56:43;;;;;;;13.82;6.03;;;;;;;;;;5067342;28;20534;-75
2023/05/23 00:59:16;;;;;;;7.60;5.60;;;;;;;;;;5067357;28;20055;-75
2023/05/23 01:01:51;;;;;;;12.60;6.18;;;;;;;;;;5067073;28;20071;-75
2023/05/23 01:04:27;;;;;;;11.13;5.72;;;;;;;;;;5065362;28;20079;-76
2023/05/23 01:07:02;;;;;;;10.70;6.82;;;;;;;;;;5065990;28;20056;-75
2023/05/23 01:09:35;;;;;;;10.40;6.35;;;;;;;;;;5066919;28;20052;-76
2023/05/23 01:12:35;;;;;;;8.65;6.25;;;;;;;;;;5064417;28;20056;-75
2023/05/23 01:15:12;;;;;;;10.20;5.30;;;;;;;;;;5067060;28;20384;-75
2023/05/23 01:17:46;;;;;;;10.68;6.68;;;;;;;;;;5065691;28;20511;-75
2023/05/23 01:20:50;;;;;;;12.75;6.53;;;;;;;;;;5066211;28;20375;-76
2023/05/23 01:23:39;;;;;;;11.02;6.00;;;;;;;;;;5066901;28;20398;-75
2023/05/23 01:26:33;;;;;;;15.05;6.85;;;;;;;;;;5066497;28;20044;-75
2023/05/23 01:29:18;;;;;;;16.15;6.57;;;;;;;;;;5066518;28;20400;-75
2023/05/23 01:31:53;;;;;;;8.82;6.22;;;;;;;;;;5066576;28;20530;-76
2023/05/23 01:34:24;;;;;;;10.43;6.38;;;;;;;;;;5064565;28;20056;-75
2023/05/23 01:36:56;;;;;;;10.18;6.95;;;;;;;;;;5066851;28;20056;-75
2023/05/23 01:39:27;;;;;;;9.50;6.65;;;;;;;;;;5064214;28;20059;-75
2023/05/23 01:41:59;;;;;;;13.43;6.47;;;;;;;;;;5064538;28;20067;-75
2023/05/23 01:44:31;;;;;;;14.63;6.10;;;;;;;;;;5066673;28;20049;-75
2023/05/23 01:47:05;;;;;;;8.70;6.50;;;;;;;;;;5066259;28;20040;-75
2023/05/23 01:49:37;;;;;;;13.25;7.13;;;;;;;;;;5064437;28;20065;-77
2023/05/23 01:52:12;;;;;;;8.95;6.18;;;;;;;;;;5065535;28;20055;-75
2023/05/23 01:54:43;;;;;;;8.07;6.38;;;;;;;;;;5066387;28;20040;-75
2023/05/23 01:57:18;;;;;;;9.82;6.18;;;;;;;;;;5064506;28;20056;-75
2023/05/23 01:59:48;;;;;;;12.82;6.18;;;;;;;;;;5064068;28;20051;-75
2023/05/23 02:02:19;;;;;;;10.73;6.18;;;;;;;;;;5063084;28;20053;-75
2023/05/23 02:04:49;;;;;;;8.98;6.80;;;;;;;;;;5064369;28;20052;-75
2023/05/23 02:07:22;;;;;;;11.85;6.68;;;;;;;;;;5066002;28;20041;-75
2023/05/23 02:09:52;;;;;;;11.75;6.22;;;;;;;;;;5064276;28;20526;-75
2023/05/23 02:12:23;;;;;;;12.38;7.03;;;;;;;;;;5065627;28;20049;-75
2023/05/23 02:14:54;;;;;;;13.20;6.20;;;;;;;;;;5066141;28;20492;-76
2023/05/23 02:17:26;;;;;;;8.85;6.60;;;;;;;;;;5064462;28;20539;-75
2023/05/23 02:19:58;;;;;;;10.02;6.45;;;;;;;;;;5063450;28;20526;-75
2023/05/23 02:22:28;;;;;;;9.40;6.07;;;;;;;;;;5064643;28;20519;-75
2023/05/23 02:24:58;;;;;;;10.57;6.15;;;;;;;;;;5064053;28;20060;-75
2023/05/23 02:27:28;;;;;;;11.35;6.22;;;;;;;;;;5065735;28;20044;-75
2023/05/23 02:29:59;;;;;;;8.45;5.97;;;;;;;;;;5065685;28;20645;-75
2023/05/23 02:32:31;;;;;;;10.15;6.78;;;;;;;;;;5063194;28;20056;-75
2023/05/23 02:35:01;;;;;;;9.90;6.18;;;;;;;;;;5063246;28;20055;-75
2023/05/23 02:37:32;;;;;;;7.35;6.30;;;;;;;;;;5063278;28;20067;-75
2023/05/23 02:40:03;;;;;;;9.70;5.47;;;;;;;;;;5064139;28;20064;-75
2023/05/23 02:42:37;;;;;;;9.27;5.95;;;;;;;;;;5064217;28;20052;-75
2023/05/23 02:45:08;;;;;;;8.73;6.15;;;;;;;;;;5063775;28;20044;-75
2023/05/23 02:47:39;;;;;;;8.93;6.45;;;;;;;;;;5063655;28;20056;-75
2023/05/23 02:50:10;;;;;;;10.98;6.47;;;;;;;;;;5063080;28;20052;-75
2023/05/23 02:52:41;;;;;;;10.98;5.65;;;;;;;;;;5065835;28;20413;-75
2023/05/23 02:55:11;;;;;;;11.20;6.38;;;;;;;;;;5063968;28;20040;-75
2023/05/23 02:57:45;;;;;;;9.90;5.40;;;;;;;;;;5063802;28;20549;-74
2023/05/23 03:00:22;;;;;;;10.77;6.85;;;;;;;;;;5063917;28;20063;-75
2023/05/23 03:02:56;;;;;;;16.75;6.60;;;;;;;;;;5063663;28;20075;-74
2023/05/23 03:05:28;;;;;;;9.57;6.40;;;;;;;;;;5063716;28;20052;-75
2023/05/23 03:07:59;;;;;;;9.90;6.45;;;;;;;;;;5063067;28;20075;-75
2023/05/23 03:10:29;;;;;;;10.75;6.18;;;;;;;;;;5065077;28;20049;-75
2023/05/23 03:13:00;;;;;;;16.90;7.03;;;;;;;;;;5064918;28;20500;-75
2023/05/23 03:15:31;;;;;;;9.38;6.78;;;;;;;;;;5063118;28;20507;-75
2023/05/23 03:18:01;;;;;;;9.55;5.97;;;;;;;;;;5062376;28;20053;-74
2023/05/23 03:20:34;;;;;;;10.27;6.63;;;;;;;;;;5064729;28;20052;-75
2023/05/23 03:23:05;;;;;;;9.55;6.22;;;;;;;;;;5065027;28;20044;-75
2023/05/23 03:25:35;;;;;;;10.95;6.28;;;;;;;;;;5064968;28;20048;-75
2023/05/23 03:28:06;;;;;;;13.88;7.13;;;;;;;;;;5065054;28;20411;-75
2023/05/23 03:30:36;;;;;;;11.57;6.47;;;;;;;;;;5064753;28;20049;-75
2023/05/23 03:33:08;;;;;;;10.60;6.68;;;;;;;;;;5063019;28;20063;-75
2023/05/23 03:35:39;;;;;;;9.85;6.00;;;;;;;;;;5062385;28;21210;-75
2023/05/23 03:38:09;;;;;;;10.10;6.85;;;;;;;;;;5064728;28;20938;-75
2023/05/23 03:40:40;;;;;;;10.70;7.28;;;;;;;;;;5062938;28;20056;-75
2023/05/23 03:43:11;;;;;;;11.25;7.68;;;;;;;;;;5064484;28;20048;-75
2023/05/23 03:45:43;;;;;;;12.30;7.78;;;;;;;;;;5062455;28;20048;-75
2023/05/23 03:48:16;;;;;;;10.32;6.68;;;;;;;;;;5062625;28;20052;-75
2023/05/23 03:50:48;;;;;;;6.28;4.90;;;;;;;;;;5062216;28;20049;-75
2023/05/23 03:53:19;;;;;;;8.93;6.38;;;;;;;;;;5062089;28;20053;-75
2023/05/23 03:55:49;;;;;;;9.63;6.60;;;;;;;;;;5061887;28;20048;-76
2023/05/23 03:58:20;;;;;;;13.18;6.20;;;;;;;;;;5062316;28;20412;-75
2023/05/23 04:00:55;;;;;;;10.10;7.25;;;;;;;;;;5062615;28;20052;-75
2023/05/23 04:03:31;;;;;;;9.57;6.75;;;;;;;;;;5064928;28;20051;-75
2023/05/23 04:06:04;;;;;;;11.70;6.32;;;;;;;;;;5062269;28;20083;-75
2023/05/23 04:08:37;;;;;;;11.73;6.72;;;;;;;;;;5062608;28;20099;-75
2023/05/23 04:11:08;;;;;;;13.88;7.07;;;;;;;;;;5062310;28;20061;-75
2023/05/23 04:13:41;;;;;;;11.23;6.85;;;;;;;;;;5062329;28;20056;-75
2023/05/23 04:16:12;;;;;;;10.00;5.95;;;;;;;;;;5062833;28;20055;-75
2023/05/23 04:18:42;;;;;;;8.68;5.88;;;;;;;;;;5061918;28;20055;-75
2023/05/23 04:21:13;;;;;;;12.48;6.47;;;;;;;;;;5062804;28;20052;-75
2023/05/23 04:23:56;;;;;;;10.85;5.90;;;;;;;;;;5062348;28;20059;-75
2023/05/23 04:26:26;;;;;;;9.75;6.38;;;;;;;;;;5063975;28;20535;-75
2023/05/23 04:28:58;;;;;;;10.10;6.72;;;;;;;;;;5067561;28;20048;-75
2023/05/23 04:31:32;;;;;;;12.05;5.97;;;;;;;;;;5066286;28;20053;-75
2023/05/23 04:34:06;;;;;;;10.07;6.15;;;;;;;;;;5049499;28;20547;-75
2023/05/23 04:36:39;;;;;;;11.52;7.28;;;;;;;;;;5066016;28;20063;-75
2023/05/23 04:39:09;;;;;;;8.45;6.13;;;;;;;;;;5065611;28;20064;-75
2023/05/23 04:41:47;;;;;;;9.32;6.10;;;;;;;;;;5065570;28;20056;-75
2023/05/23 04:44:37;;;;;;;8.40;5.78;;;;;;;;;;5066962;28;20508;-75
2023/05/23 04:47:16;;;;;;;9.82;6.88;;;;;;;;;;5065331;28;20064;-75
2023/05/23 04:50:04;;;;;;;9.40;6.30;;;;;;;;;;5066144;28;20040;-75
2023/05/23 04:52:35;;;;;;;15.98;6.65;;;;;;;;;;5065400;28;20056;-75
2023/05/23 04:55:07;;;;;;;13.02;7.40;;;;;;;;;;5067072;28;20048;-75
2023/05/23 04:57:38;;;;;;;12.20;6.72;;;;;;;;;;5065330;28;20052;-75
2023/05/23 05:00:10;;;;;;;14.82;7.32;;;;;;;;;;5065550;28;20056;-75
2023/05/23 05:02:42;;;;;;;8.75;5.65;;;;;;;;;;5065807;28;20049;-75
2023/05/23 05:05:12;;;;;;;13.35;6.00;;;;;;;;;;5064981;28;20052;-75
2023/05/23 05:07:43;;;;;;;9.02;6.22;;;;;;;;;;5065109;28;20049;-75
2023/05/23 05:10:17;;;;;;;8.73;5.57;;;;;;;;;;5065357;28;20044;-75
2023/05/23 05:12:48;;;;;;;10.25;7.03;;;;;;;;;;5064838;28;20056;-75
2023/05/23 05:15:21;;;;;;;9.70;6.38;;;;;;;;;;5049545;28;20052;-75
2023/05/23 05:17:56;;;;;;;9.93;5.70;;;;;;;;;;5065230;28;20503;-75
2023/05/23 05:20:27;;;;;;;9.63;6.38;;;;;;;;;;5064573;28;20055;-75
2023/05/23 05:22:59;;;;;;;15.35;6.30;;;;;;;;;;5065522;28;20063;-75
2023/05/23 05:25:34;;;;;;;12.20;6.90;;;;;;;;;;5064993;28;20431;-75
2023/05/23 05:28:05;;;;;;;9.73;6.80;;;;;;;;;;5066591;28;20511;-75
2023/05/23 05:30:40;;;;;;;8.57;6.55;;;;;;;;;;5065252;28;20056;-75
2023/05/23 05:33:12;;;;;;;11.85;6.05;;;;;;;;;;5064670;28;20049;-75
2023/05/23 05:35:43;;;;;;;11.50;7.18;;;;;;;;;;5064834;28;20048;-75
2023/05/23 05:38:13;;;;;;;12.20;6.80;;;;;;;;;;5064531;28;20329;-75
2023/05/23 05:40:44;;;;;;;9.90;6.90;;;;;;;;;;5066391;28;20047;-75
2023/05/23 05:43:15;;;;;;;15.77;6.82;;;;;;;;;;5064448;28;20067;-75
2023/05/23 05:45:46;;;;;;;12.45;6.95;;;;;;;;;;5064849;28;20059;-75
2023/05/23 05:48:17;;;;;;;8.27;6.03;;;;;;;;;;5066480;28;20052;-75
2023/05/23 05:50:47;;;;;;;13.00;7.50;;;;;;;;;;5064665;28;20523;-75
2023/05/23 05:53:18;;;;;;;9.75;6.72;;;;;;;;;;5064158;28;20431;-75
2023/05/23 05:55:49;;;;;;;13.80;8.35;;;;;;;;;;5063985;28;20067;-75
2023/05/23 05:58:20;;;;;;;11.88;6.93;;;;;;;;;;5064048;28;20530;-75
2023/05/23 06:01:12;;;;;;;13.82;7.55;;;;;;;;;;5063653;28;20049;-75
2023/05/23 06:03:45;;;;;;;9.60;6.40;;;;;;;;;;5065891;28;20055;-75
2023/05/23 06:06:15;;;;;;;9.63;7.07;;;;;;;;;;5064418;28;20049;-75
2023/05/23 06:08:46;;;;;;;11.85;7.40;;;;;;;;;;5063363;28;20052;-75
2023/05/23 06:11:17;;;;;;;11.90;6.50;;;;;;;;;;5064079;28;20534;-75
2023/05/23 06:13:47;;;;;;;12.07;7.78;;;;;;;;;;5064158;28;20059;-74
2023/05/23 06:16:18;;;;;;;13.45;7.32;;;;;;;;;;5063795;28;20040;-75
2023/05/23 06:18:49;;;;;;;10.95;7.00;;;;;;;;;;5063281;28;20056;-75
2023/05/23 06:21:21;;;;;;;9.15;6.53;;;;;;;;;;5063482;28;20049;-75
2023/05/23 06:23:52;;;;;;;18.48;7.85;;;;;;;;;;5063257;28;20082;-75
2023/05/23 06:26:23;;;;;;;9.68;6.18;;;;;;;;;;5065799;28;20527;-75
2023/05/23 06:28:53;;;;;;;12.13;7.38;;;;;;;;;;5063167;28;20052;-75
2023/05/23 06:31:25;;;;;;;10.55;6.80;;;;;;;;;;5063103;28;20048;-75
2023/05/23 06:33:55;;;;;;;11.55;7.80;;;;;;;;;;5063605;28;20546;-75
2023/05/23 06:36:26;;;;;;;12.82;7.07;;;;;;;;;;5065169;28;20056;-75
2023/05/23 06:38:57;;;;;;;9.70;6.68;;;;;;;;;;5066247;28;20044;-75
2023/05/23 06:41:27;;;;;;;10.32;6.93;;;;;;;;;;5063816;28;20503;-75
2023/05/23 06:43:59;;;;;;;8.63;6.90;;;;;;;;;;5063867;28;20065;-75
2023/05/23 06:46:31;;;;;;;12.15;5.80;;;;;;;;;;5063271;28;20503;-75
2023/05/23 06:49:02;;;;;;;9.32;6.28;;;;;;;;;;5063046;28;20405;-75
2023/05/23 06:51:45;;;;;;;15.60;6.85;;;;;;;;;;5063188;28;20052;-75
2023/05/23 06:54:16;;;;;;;9.27;6.35;;;;;;;;;;5063545;28;20052;-75
2023/05/23 06:56:45;;;;;;;10.15;6.93;;;;;;;;;;5063144;28;20404;-75
2023/05/23 06:59:23;;;;;;;9.57;6.68;;;;;;;;;;5065396;28;20049;-75
2023/05/23 07:01:54;;;;;;;7.72;6.03;;;;;;;;;;5062885;28;20511;-75
2023/05/23 07:04:25;;;;;;;9.85;5.28;;;;;;;;;;5063254;28;20059;-75
2023/05/23 07:07:01;;;;;;;9.05;6.53;;;;;;;;;;5063387;28;20064;-74
2023/05/23 07:09:33;;;;;;;6.75;5.00;;;;;;;;;;5063070;28;20052;-74
2023/05/23 07:12:11;;;;;;;10.38;6.10;;;;;;;;;;5064794;28;20051;-75
2023/05/23 07:14:44;;;;;;;14.60;7.10;;;;;;;;;;5062889;28;20757;-75
2023/05/23 07:17:15;;;;;;;12.60;7.43;;;;;;;;;;5062895;28;20056;-75
2023/05/23 07:19:47;;;;;;;12.18;6.88;;;;;;;;;;5063269;28;20507;-74
2023/05/23 07:22:18;;;;;;;12.23;6.88;;;;;;;;;;5062497;28;20075;-75
2023/05/23 07:24:49;;;;;;;9.80;6.30;;;;;;;;;;5063445;28;20060;-75
2023/05/23 07:27:21;;;;;;;9.77;7.00;;;;;;;;;;5063420;28;20052;-74
2023/05/23 07:29:52;;;;;;;10.88;7.25;;;;;;;;;;5062484;28;20083;-74
2023/05/23 07:32:23;;;;;;;10.18;6.68;;;;;;;;;;5063224;28;20162;-74
2023/05/23 07:34:55;;;;;;;8.35;6.18;;;;;;;;;;5062806;28;20427;-74
2023/05/23 07:37:26;;;;;;;13.40;7.40;;;;;;;;;;5062301;28;20057;-75
2023/05/23 07:39:57;;;;;;;11.15;6.10;;;;;;;;;;5062153;28;20059;-75
2023/05/23 07:42:28;;;;;;;10.63;6.68;;;;;;;;;;5062739;28;20056;-74
2023/05/23 07:44:58;;;;;;;10.00;6.68;;;;;;;;;;5064804;28;20044;-74
2023/05/23 07:47:29;;;;;;;8.52;5.40;;;;;;;;;;5063288;28;20531;-74
2023/05/23 07:50:01;;;;;;;10.05;6.57;;;;;;;;;;5062864;28;20423;-75
2023/05/23 07:52:32;;;;;;;8.35;5.35;;;;;;;;;;5062479;28;20427;-74
2023/05/23 07:55:07;;;;;;;7.82;5.43;;;;;;;;;;5062544;28;20072;-74
2023/05/23 07:57:37;;;;;;;7.22;5.80;;;;;;;;;;5062761;28;20052;-74
2023/05/23 08:00:11;;;;;;;6.32;5.45;;;;;;;;;;5062696;28;20071;-75
2023/05/23 08:02:44;;;;;;;7.50;5.57;;;;;;;;;;5072543;28;20057;-75
2023/05/23 08:05:25;;;;;;;8.80;6.13;;;;;;;;;;5066564;28;20512;-75
2023/05/23 08:07:57;;;;;;;11.30;6.38;;;;;;;;;;5066264;28;20049;-75
2023/05/23 08:10:28;;;;;;;8.60;6.55;;;;;;;;;;5066258;28;20063;-74
2023/05/23 08:13:08;;;;;;;10.80;6.38;;;;;;;;;;5065687;28;20056;-75
2023/05/23 08:15:50;;;;;;;11.88;6.25;;;;;;;;;;5066693;28;20060;-74
2023/05/23 08:18:24;;;;;;;10.38;7.00;;;;;;;;;;5066013;28;20057;-75
2023/05/23 08:20:56;;;;;;;10.85;6.68;;;;;;;;;;5065875;28;20053;-74
2023/05/23 08:23:27;;;;;;;8.05;6.35;;;;;;;;;;5065822;28;20049;-75
2023/05/23 08:26:00;;;;;;;8.00;6.07;;;;;;;;;;5066234;28;20075;-74
2023/05/23 08:28:33;;;;;;;9.10;5.97;;;;;;;;;;5066422;28;20048;-74
2023/05/23 08:31:06;;;;;;;10.05;5.70;;;;;;;;;;5065818;28;20056;-74
2023/05/23 08:33:36;;;;;;;8.57;6.43;;;;;;;;;;5065485;28;20507;-74
2023/05/23 08:36:10;;;;;;;8.63;6.40;;;;;;;;;;5068141;28;20048;-74
2023/05/23 08:38:42;;;;;;;6.85;5.30;;;;;;;;;;5065837;28;20044;-75
2023/05/23 08:41:20;;;;;;;8.57;5.90;;;;;;;;;;5066228;28;20064;-75
2023/05/23 08:43:57;;;;;;;8.10;5.32;;;;;;;;;;5065476;28;20503;-75
2023/05/23 08:46:38;;;;;;;12.02;6.13;;;;;;;;;;5065747;28;20052;-74
2023/05/23 08:49:13;;;;;;;19.45;6.40;;;;;;;;;;5065837;28;20511;-75
2023/05/23 08:51:45;;;;;;;8.98;6.25;;;;;;;;;;5065486;28;20537;-74
2023/05/23 08:54:21;;;;;;;6.70;5.03;;;;;;;;;;5065230;28;20060;-74
2023/05/23 08:56:51;;;;;;;10.73;5.88;;;;;;;;;;5065362;28;20052;-74
2023/05/23 08:59:22;;;;;;;7.63;5.30;;;;;;;;;;5067435;28;20048;-74
2023/05/23 09:01:56;;;;;;;11.20;7.45;;;;;;;;;;5066482;28;20053;-74
2023/05/23 09:04:28;;;;;;;8.15;6.15;;;;;;;;;;5064904;28;20545;-74
2023/05/23 09:07:15;;;;;;;8.60;6.35;;;;;;;;;;5065040;28;20056;-74
2023/05/23 09:09:46;;;;;;;10.35;5.95;;;;;;;;;;5065120;28;20064;-74
2023/05/23 09:12:23;;;;;;;9.27;6.20;;;;;;;;;;5065113;28;20511;-75
2023/05/23 09:14:55;;;;;;;10.35;6.00;;;;;;;;;;5065753;28;20053;-74
2023/05/23 09:17:26;;;;;;;10.60;5.82;;;;;;;;;;5064858;28;20056;-74
2023/05/23 09:19:56;;;;;;;8.18;5.47;;;;;;;;;;5064545;28;20138;-75
2023/05/23 09:22:49;;;;;;;52.20;5.20;;;;;;;;;;5066240;28;20057;-74
2023/05/23 09:25:20;;;;;;;5.80;4.43;;;;;;;;;;5064940;28;20216;-74
2023/05/23 09:27:53;;;;;;;6.85;5.45;;;;;;;;;;5064937;28;20656;-75
2023/05/23 09:30:24;;;;;;;8.73;6.28;;;;;;;;;;5065231;28;20056;-74
2023/05/23 09:33:01;;;;;;;10.05;5.85;;;;;;;;;;5064645;28;20802;-74
2023/05/23 09:35:34;;;;;;;6.28;4.25;;;;;;;;;;5064514;28;20052;-74
2023/05/23 09:38:07;;;;;;;9.82;5.65;;;;;;;;;;5064578;28;20060;-77
2023/05/23 09:40:43;;;;;;;8.93;5.78;;;;;;;;;;5064128;28;20060;-75
2023/05/23 09:43:17;;;;;;;6.70;4.68;;;;;;;;;;5066910;28;20070;-75
2023/05/23 09:45:51;;;;;;;7.50;5.53;;;;;;;;;;5063997;28;20060;-74
2023/05/23 09:48:32;;;;;;;9.15;5.82;;;;;;;;;;5064955;28;20060;-74
2023/05/23 09:51:08;;;;;;;11.55;5.63;;;;;;;;;;5064399;28;20190;-75
2023/05/23 09:53:40;;;;;;;13.93;6.00;;;;;;;;;;5066265;28;20053;-74
2023/05/23 09:56:14;;;;;;;8.10;5.30;;;;;;;;;;5066008;28;20385;-75
2023/05/23 09:58:47;;;;;;;11.50;5.70;;;;;;;;;;5066274;28;20041;-75
2023/05/23 10:01:18;;;;;;;7.75;5.25;;;;;;;;;;5065687;28;20055;-74
2023/05/23 10:03:56;;;;;;;5.70;4.70;;;;;;;;;;5066406;28;20040;-75
2023/05/23 10:06:39;;;;;;;5.40;4.35;;;;;;;;;;5065318;28;20051;-76
2023/05/23 10:09:14;;;;;;;5.93;4.65;;;;;;;;;;5065966;28;20411;-75
2023/05/23 10:12:00;;;;;;;11.63;6.65;;;;;;;;;;5065957;28;20048;-75
2023/05/23 10:14:35;;;;;;;11.35;6.28;;;;;;;;;;5063510;28;20408;-74
2023/05/23 10:17:20;;;;;;;7.25;5.50;;;;;;;;;;5064353;28;20403;-76
2023/05/23 10:20:07;;;;;;;9.57;5.80;;;;;;;;;;5065506;28;20037;-74
2023/05/23 10:22:38;;;;;;;9.93;5.47;;;;;;;;;;5065817;28;20048;-75
2023/05/23 10:25:09;;;;;;;7.57;4.85;;;;;;;;;;5065873;28;20406;-74
2023/05/23 10:27:42;;;;;;;8.07;5.75;;;;;;;;;;5065541;28;20698;-74
2023/05/23 10:30:13;;;;;;;13.02;6.28;;;;;;;;;;5065441;28;20052;-74
2023/05/23 10:32:45;;;;;;;9.80;6.68;;;;;;;;;;5065286;28;20044;-75
2023/05/23 10:35:44;;;;;;;8.02;5.65;;;;;;;;;;5065527;28;20052;-74
2023/05/23 10:38:26;;;;;;;10.10;5.63;;;;;;;;;;5060414;28;20439;-74
2023/05/23 10:41:10;;;;;;;10.73;5.82;;;;;;;;;;5065049;28;20049;-74
2023/05/23 10:44:15;;;;;;;12.95;6.72;;;;;;;;;;5065869;28;20036;-75
2023/05/23 10:47:00;;;;;;;14.65;7.63;;;;;;;;;;5002908;28;20052;-77
2023/05/23 10:49:39;;;;;;;10.57;7.88;;;;;;;;;;5061784;28;20060;-75
2023/05/23 10:52:12;;;;;;;10.27;6.72;;;;;;;;;;5065142;28;20047;-75
2023/05/23 10:54:45;;;;;;;10.48;6.68;;;;;;;;;;5065562;28;20044;-74
2023/05/23 10:57:28;;;;;;;10.32;6.47;;;;;;;;;;5066137;28;20434;-74
2023/05/23 10:59:58;;;;;;;8.32;6.10;;;;;;;;;;5065704;28;20044;-74
2023/05/23 11:02:29;;;;;;;8.45;5.35;;;;;;;;;;5064813;28;20606;-74
2023/05/23 11:05:20;;;;;;;10.68;6.18;;;;;;;;;;5065402;28;20040;-74
2023/05/23 11:08:14;;;;;;;8.50;5.55;;;;;;;;;;5064856;28;20044;-77
2023/05/23 11:11:02;;;;;;;8.25;5.60;;;;;;;;;;5064972;28;20043;-73
2023/05/23 11:13:50;;;;;;;;;;;;;;;;;;5064554;28;20067;-77
2023/05/23 11:16:40;;;;;;;12.00;7.50;;;;;;;;;;5064815;28;19924;-75
2023/05/23 11:19:30;;;;;;;17.40;8.57;;;;;;;;;;5047111;28;20769;-74
2023/05/23 11:22:04;;;;;;;15.00;7.00;;;;;;;;;;5064922;28;20052;-74
2023/05/23 11:24:52;;;;;;;9.43;5.82;;;;;;;;;;5064982;28;20045;-74
2023/05/23 11:27:28;;;;;;;14.63;7.45;;;;;;;;;;5064704;28;20072;-74
2023/05/23 11:30:18;;;;;;;14.40;7.15;;;;;;;;;;5065415;28;20053;-74
2023/05/23 11:32:52;;;;;;;11.45;6.70;;;;;;;;;;5065313;28;20057;-75
2023/05/23 11:35:22;;;;;;;8.63;5.82;;;;;;;;;;5066935;28;20055;-76
2023/05/23 11:37:52;;;;;;;10.88;6.07;;;;;;;;;;5068782;28;20052;-75
2023/05/23 11:40:38;;;;;;;15.38;5.70;;;;;;;;;;5068696;28;20510;-76
2023/05/23 11:43:18;;;;;;;9.25;5.53;;;;;;;;;;5068363;28;20040;-75
2023/05/23 11:45:49;;;;;;;12.40;8.02;;;;;;;;;;5068433;28;20048;-75
2023/05/23 11:48:19;;;;;;;14.07;5.30;;;;;;;;;;5069332;28;20052;-75
2023/05/23 11:50:51;;;;;;;12.45;4.70;;;;;;;;;;5068476;28;20048;-75
2023/05/23 11:53:24;;;;;;;5.85;4.80;;;;;;;;;;5068621;28;20052;-75
2023/05/23 11:55:59;;;;;;;10.88;5.07;;;;;;;;;;5068265;28;20048;-75
2023/05/23 11:58:30;;;;;;;11.40;5.88;;;;;;;;;;5066413;28;20065;-77
2023/05/23 12:01:08;;;;;;;9.48;6.70;;;;;;;;;;5068570;28;20056;-75
2023/05/23 12:03:50;;;;;;;20.45;7.25;;;;;;;;;;5068753;28;20072;-75
2023/05/23 12:06:23;;;;;;;5.07;3.95;;;;;;;;;;5068376;28;20699;-75
2023/05/23 12:08:54;;;;;;;6.75;5.10;;;;;;;;;;5068133;28;20041;-75
2023/05/23 12:11:25;;;;;;;16.13;6.93;;;;;;;;;;5068242;28;20051;-77
2023/05/23 12:13:58;;;;;;;8.80;5.05;;;;;;;;;;5068680;28;20410;-75
2023/05/23 12:16:29;;;;;;;7.07;4.65;;;;;;;;;;5067972;28;20056;-75
2023/05/23 12:19:01;;;;;;;12.43;4.38;;;;;;;;;;5068376;28;20044;-75
2023/05/23 12:21:45;;;;;;;5.60;3.53;;;;;;;;;;5067563;28;20643;-75
2023/05/23 12:24:22;;;;;;;10.80;4.03;;;;;;;;;;5068153;28;20522;-75
2023/05/23 12:26:55;;;;;;;6.45;3.90;;;;;;;;;;5067674;28;20048;-77
2023/05/23 12:29:34;;;;;;;10.40;3.95;;;;;;;;;;5067690;28;20056;-75
2023/05/23 12:32:06;;;;;;;15.38;5.25;;;;;;;;;;5067963;28;20053;-76
2023/05/23 12:34:42;;;;;;;7.10;3.80;;;;;;;;;;5068392;28;20048;-75
2023/05/23 12:37:13;;;;;;;6.65;3.50;;;;;;;;;;5067617;28;20044;-77
2023/05/23 12:39:48;;;;;;;;;;;;;;;;;;5067867;28;20537;-77
2023/05/23 12:42:17;;;;;;;9.25;4.25;;;;;;;;;;5067646;28;19928;-76
2023/05/23 12:44:53;;;;;;;11.52;4.05;;;;;;;;;;5065555;28;20052;-76
2023/05/23 12:47:23;;;;;;;;;;;;;;;;;;5067293;28;20107;-75
2023/05/23 12:49:55;;;;;;;5.60;3.75;;;;;;;;;;5068080;28;19928;-76
2023/05/23 12:52:24;;;;;;;9.88;3.88;;;;;;;;;;5067680;28;20483;-75
2023/05/23 12:54:56;;;;;;;9.77;4.10;;;;;;;;;;5065923;28;20507;-75
2023/05/23 12:57:26;;;;;;;5.93;3.65;;;;;;;;;;5066335;28;20045;-76
2023/05/23 12:59:58;;;;;;;5.45;3.67;;;;;;;;;;5067426;28;20043;-75
2023/05/23 13:02:28;;;;;;;5.43;3.60;;;;;;;;;;5067151;28;20052;-75
2023/05/23 13:05:00;;;;;;;10.80;3.70;;;;;;;;;;5067832;28;20540;-75
2023/05/23 13:07:31;;;;;;;10.43;3.55;;;;;;;;;;5067806;28;20045;-75
2023/05/23 13:10:01;;;;;;;20.08;5.40;;;;;;;;;;5067343;28;20044;-75
2023/05/23 13:12:33;;;;;;;11.02;4.30;;;;;;;;;;5066892;28;20049;-75
2023/05/23 13:15:06;;;;;;;8.20;3.88;;;;;;;;;;5066950;28;20048;-75
2023/05/23 13:17:36;;;;;;;13.80;4.15;;;;;;;;;;5065230;28;20419;-76
2023/05/23 13:20:08;;;;;;;5.70;3.40;;;;;;;;;;5067030;28;20419;-75
2023/05/23 13:22:38;;;;;;;6.47;3.60;;;;;;;;;;5067112;28;20048;-77
2023/05/23 13:25:09;;;;;;;7.78;4.18;;;;;;;;;;5067189;28;20047;-76
2023/05/23 13:27:40;;;;;;;5.35;3.20;;;;;;;;;;5066263;28;20059;-76
2023/05/23 13:30:10;;;;;;;5.97;3.42;;;;;;;;;;5065583;28;20067;-75
2023/05/23 13:32:41;;;;;;;6.20;3.75;;;;;;;;;;5067081;28;20059;-75
2023/05/23 13:35:14;;;;;;;8.85;3.70;;;;;;;;;;5066521;28;20036;-76
2023/05/23 13:37:45;;;;;;;4.63;3.45;;;;;;;;;;5065716;28;20056;-78
2023/05/23 13:40:20;;;;;;;6.22;3.53;;;;;;;;;;5066122;28;20399;-76
2023/05/23 13:42:51;;;;;;;6.75;3.45;;;;;;;;;;5065943;28;20053;-76
2023/05/23 13:45:23;;;;;;;12.55;3.95;;;;;;;;;;5065853;28;20044;-75
2023/05/23 13:47:55;;;;;;;11.93;5.43;;;;;;;;;;5066412;28;20051;-75
2023/05/23 13:50:26;;;;;;;10.02;7.25;;;;;;;;;;5066194;28;20060;-76
2023/05/23 13:52:56;;;;;;;10.07;4.32;;;;;;;;;;5064210;28;20048;-75
2023/05/23 13:55:27;;;;;;;6.70;3.67;;;;;;;;;;5066128;28;20495;-76
2023/05/23 13:57:58;;;;;;;6.20;3.90;;;;;;;;;;5065748;28;20549;-76
2023/05/23 14:00:29;;;;;;;7.78;3.80;;;;;;;;;;5066575;28;20387;-76
2023/05/23 14:02:59;;;;;;;8.07;3.90;;;;;;;;;;5080939;28;20053;-79
2023/05/23 14:05:30;;;;;;;11.38;4.13;;;;;;;;;;5066050;28;20059;-76
2023/05/23 14:08:01;;;;;;;9.75;4.90;;;;;;;;;;5066078;28;20052;-75
2023/05/23 14:10:32;;;;;;;6.22;3.67;;;;;;;;;;5066058;28;20605;-76
2023/05/23 14:13:02;;;;;;;10.10;4.10;;;;;;;;;;5065875;28;20044;-76
2023/05/23 14:15:34;;;;;;;7.47;3.80;;;;;;;;;;5065737;28;20044;-76
2023/05/23 14:18:05;;;;;;;6.90;3.85;;;;;;;;;;5066070;28;20514;-76
2023/05/23 14:20:35;;;;;;;5.95;3.55;;;;;;;;;;5066168;28;20477;-76
2023/05/23 14:23:05;;;;;;;6.15;3.65;;;;;;;;;;5065978;28;20063;-76
2023/05/23 14:25:37;;;;;;;5.78;3.58;;;;;;;;;;5065814;28;20048;-77
2023/05/23 14:28:08;;;;;;;11.98;3.70;;;;;;;;;;5063794;28;20063;-76
2023/05/23 14:30:38;;;;;;;5.22;3.30;;;;;;;;;;5065850;28;21204;-75
2023/05/23 14:33:08;;;;;;;4.60;3.00;;;;;;;;;;5065701;28;20055;-76
2023/05/23 14:35:41;;;;;;;10.95;7.45;;;;;;;;;;5065383;28;20055;-75
2023/05/23 14:38:13;;;;;;;10.27;3.75;;;;;;;;;;5065519;28;20048;-78
2023/05/23 14:40:44;;;;;;;5.88;3.45;;;;;;;;;;5064301;28;20773;-76
2023/05/23 14:43:16;;;;;;;6.18;3.13;;;;;;;;;;5064810;28;20418;-79
2023/05/23 14:45:46;;;;;;;7.43;3.10;;;;;;;;;;5065616;28;20051;-76
2023/05/23 14:48:18;;;;;;;8.77;3.60;;;;;;;;;;5065234;28;20044;-82
2023/05/23 14:50:49;;;;;;;6.95;2.97;;;;;;;;;;5065488;28;20048;-76
2023/05/23 14:53:22;;;;;;;6.43;2.90;;;;;;;;;;5065649;28;20342;-76
2023/05/23 14:55:53;;;;;;;6.90;2.90;;;;;;;;;;5065276;28;20045;-75
2023/05/23 14:58:24;;;;;;;8.00;2.88;;;;;;;;;;5080396;28;20056;-80
2023/05/23 15:00:56;;;;;;;7.05;2.67;;;;;;;;;;5065472;28;20055;-76
2023/05/23 15:03:28;;;;;;;4.90;2.65;;;;;;;;;;5065258;28;20047;-76
2023/05/23 15:05:59;;;;;;;7.50;2.58;;;;;;;;;;5065498;28;20041;-75
2023/05/23 15:08:30;;;;;;;8.40;3.45;;;;;;;;;;5065442;28;20048;-76
2023/05/23 15:11:01;;;;;;;5.75;2.60;;;;;;;;;;5064593;28;20052;-77
2023/05/23 15:13:33;;;;;;;8.05;3.13;;;;;;;;;;5063784;28;20040;-76
2023/05/23 15:16:03;;;;;;;7.95;2.78;;;;;;;;;;5065112;28;20044;-76